OEBA/ABT METAR and TAF weather

Enter ICAO airport designator
Station Type Date Time Source
OEBA METAR 2019/04/25 09:00 UTC NOAA

OEBA 250900Z 10008KT 4800 DU FEW030 28/09 Q1022 NOSIG


Station Type Date Time Source
OEBA Decoded METAR 2019/04/25 09:00 UTC NOAA

Al Baha, Saudi Arabia (OEBA) 20-18N 041-38E 1662M
Apr 25, 2019 - 05:00 AM EDT / 2019.04.25 0900 UTC
Wind: from the E (100 degrees) at 9 MPH (8 KT):0
Visibility: 2 mile(s):0
Sky conditions: mostly clear
Weather: widespread dust
Temperature: 82 F (28 C)
Dew Point: 48 F (9 C)
Relative Humidity: 30%
Pressure (altimeter): 30.18 in. Hg (1022 hPa)
ob: OEBA 250900Z 10008KT 4800 DU FEW030 28/09 Q1022 NOSIG
cycle: 9

Station Type Date Time Source
OEBA TAF 2019/04/24 12:06 UTC NOAA

TAF OEBA 241100Z 2412/2518 10006G16KT 6000 FEW030
TEMPO 2412/2417 4000 BLDU TSRA FEW025CB SCT030

Example: see airport list